^^
Grace C. Lehan Memorial Weather Station Historical Data
Daily Summary for January 4, 2021 Units:  Both    English   Metric
Daily Weekly Monthly Yearly
  High: Low: Average:
Temperature: 42.1 °F /  5.6 °C 31.9 °F /  -0.1 °C 35.3 °F /  1.8 °C
Dew Point: 34.9 °F /  1.6 °C 30 °F /  -1.1 °C 31.8 °F /  -0.1 °C
Humidity: 100% 71% 87%
Wind Speed: 4.5mph /  7.2km/h - 1.1mph /  1.8km/h
Wind Gust: 12mph /  19.3km/h - -
Wind- - West
Pressure: 30.00 in /  1015.8 hPa 29.91 in /  1012.8 hPa -
Precipitation: 0.01 in /  0.25 mm    
 
 
Tabular Data for January 4, 2021
Time Temperature Dew Point Pressure Wind Wind Speed Wind Gust Humidity Rainfall Rate (Hourly) solar
00:04 33.2 °F /  0.7 °C 31.7 °F /  -0.2 °C 29.94in /  1013.8hPa NNW 2mph /  3.2km/h 9mph /  14.5km/h 94% 0.00in /  0mm 0 W/m2
00:09 33.2 °F /  0.7 °C 31.7 °F /  -0.2 °C 29.94in /  1013.8hPa NNW 1.4mph /  2.3km/h 5mph /  8km/h 94% 0.00in /  0mm 0 W/m2
00:14 33.2 °F /  0.7 °C 31.7 °F /  -0.2 °C 29.94in /  1013.8hPa North 1.7mph /  2.7km/h 5mph /  8km/h 94% 0.00in /  0mm 0 W/m2
00:19 33.2 °F /  0.7 °C 31.7 °F /  -0.2 °C 29.94in /  1013.8hPa NW 0.9mph /  1.4km/h 6mph /  9.7km/h 94% 0.00in /  0mm 0 W/m2
00:24 33.2 °F /  0.7 °C 31.7 °F /  -0.2 °C 29.94in /  1013.8hPa NNW 1.1mph /  1.8km/h 6mph /  9.7km/h 94% 0.00in /  0mm 0 W/m2
00:29 33.2 °F /  0.7 °C 31.7 °F /  -0.2 °C 29.94in /  1013.8hPa NNW 1.5mph /  2.4km/h 7mph /  11.3km/h 94% 0.00in /  0mm 0 W/m2
00:34 33.2 °F /  0.7 °C 31.7 °F /  -0.2 °C 29.94in /  1013.8hPa NNW 2mph /  3.2km/h 7mph /  11.3km/h 94% 0.00in /  0mm 0 W/m2
00:39 33.2 °F /  0.7 °C 31.6 °F /  -0.2 °C 29.94in /  1013.8hPa NNW 1.7mph /  2.7km/h 7mph /  11.3km/h 94% 0.00in /  0mm 0 W/m2
00:44 33.1 °F /  0.6 °C 31.6 °F /  -0.2 °C 29.94in /  1013.8hPa NNW 2.8mph /  4.5km/h 7mph /  11.3km/h 94% 0.00in /  0mm 0 W/m2
00:49 33.1 °F /  0.6 °C 31.6 °F /  -0.2 °C 29.94in /  1013.8hPa NNW 0.9mph /  1.4km/h 7mph /  11.3km/h 94% 0.00in /  0mm 0 W/m2
00:54 33.1 °F /  0.6 °C 31.6 °F /  -0.2 °C 29.94in /  1013.8hPa NNW 0.7mph /  1.1km/h 7mph /  11.3km/h 94% 0.00in /  0mm 0 W/m2
00:59 33.1 °F /  0.6 °C 31.6 °F /  -0.2 °C 29.94in /  1013.8hPa NNW 1.3mph /  2.1km/h 7mph /  11.3km/h 94% 0.00in /  0mm 0 W/m2
01:04 33.1 °F /  0.6 °C 31.6 °F /  -0.2 °C 29.94in /  1013.8hPa NNW 1.8mph /  2.9km/h 7mph /  11.3km/h 94% 0.00in /  0mm 0 W/m2
01:09 33.1 °F /  0.6 °C 31.6 °F /  -0.2 °C 29.94in /  1013.8hPa NNW 1.3mph /  2.1km/h 9mph /  14.5km/h 94% 0.00in /  0mm 0 W/m2
01:14 33.1 °F /  0.6 °C 31.6 °F /  -0.2 °C 29.95in /  1014.1hPa NNW 0.7mph /  1.1km/h 9mph /  14.5km/h 94% 0.00in /  0mm 0 W/m2
01:19 33.1 °F /  0.6 °C 31.6 °F /  -0.2 °C 29.95in /  1014.1hPa NNW 1.6mph /  2.6km/h 9mph /  14.5km/h 94% 0.00in /  0mm 0 W/m2
01:24 33.1 °F /  0.6 °C 31.5 °F /  -0.3 °C 29.95in /  1014.1hPa NNW 0.9mph /  1.4km/h 9mph /  14.5km/h 94% 0.00in /  0mm 0 W/m2
01:29 33.1 °F /  0.6 °C 31.5 °F /  -0.3 °C 29.95in /  1014.1hPa North 0.9mph /  1.4km/h 9mph /  14.5km/h 94% 0.00in /  0mm 0 W/m2
01:34 33.1 °F /  0.6 °C 31.5 °F /  -0.3 °C 29.95in /  1014.1hPa NNW 0.7mph /  1.1km/h 9mph /  14.5km/h 94% 0.00in /  0mm 0 W/m2
01:39 33.1 °F /  0.6 °C 31.5 °F /  -0.3 °C 29.95in /  1014.1hPa NNW 1.6mph /  2.6km/h 7mph /  11.3km/h 94% 0.00in /  0mm 0 W/m2
01:44 33.1 °F /  0.6 °C 31.6 °F /  -0.2 °C 29.94in /  1013.8hPa NNW 1.3mph /  2.1km/h 7mph /  11.3km/h 94% 0.00in /  0mm 0 W/m2
01:49 33 °F /  0.6 °C 31.5 °F /  -0.3 °C 29.95in /  1014.1hPa NNW 1.2mph /  1.9km/h 7mph /  11.3km/h 94% 0.00in /  0mm 0 W/m2
01:54 33 °F /  0.6 °C 31.5 °F /  -0.3 °C 29.95in /  1014.1hPa NNW 2.8mph /  4.5km/h 8mph /  12.9km/h 94% 0.00in /  0mm 0 W/m2
01:59 32.9 °F /  0.5 °C 31.3 °F /  -0.4 °C 29.95in /  1014.1hPa NNW 2.3mph /  3.7km/h 10mph /  16.1km/h 93.6% 0.00in /  0mm 0 W/m2
02:04 32.9 °F /  0.5 °C 31.1 °F /  -0.5 °C 29.95in /  1014.1hPa NNW 2mph /  3.2km/h 10mph /  16.1km/h 93% 0.00in /  0mm 0 W/m2
02:09 32.9 °F /  0.5 °C 31.1 °F /  -0.5 °C 29.95in /  1014.1hPa NNW 1.1mph /  1.8km/h 8mph /  12.9km/h 93% 0.00in /  0mm 0 W/m2
02:14 32.8 °F /  0.4 °C 31 °F /  -0.6 °C 29.95in /  1014.1hPa NNW 2.7mph /  4.3km/h 8mph /  12.9km/h 93% 0.00in /  0mm 0 W/m2
02:19 32.8 °F /  0.4 °C 31 °F /  -0.6 °C 29.95in /  1014.1hPa NNW 3mph /  4.8km/h 9mph /  14.5km/h 93% 0.00in /  0mm 0 W/m2
02:24 32.8 °F /  0.4 °C 31 °F /  -0.6 °C 29.95in /  1014.1hPa North 2.1mph /  3.4km/h 9mph /  14.5km/h 93% 0.00in /  0mm 0 W/m2
02:29 32.8 °F /  0.4 °C 31 °F /  -0.6 °C 29.95in /  1014.1hPa North 1.5mph /  2.4km/h 9mph /  14.5km/h 93% 0.00in /  0mm 0 W/m2
02:34 32.8 °F /  0.4 °C 31 °F /  -0.6 °C 29.95in /  1014.1hPa North 1.1mph /  1.8km/h 9mph /  14.5km/h 93% 0.00in /  0mm 0 W/m2
02:39 32.8 °F /  0.4 °C 31 °F /  -0.6 °C 29.95in /  1014.1hPa NNW 2mph /  3.2km/h 6mph /  9.7km/h 93% 0.00in /  0mm 0 W/m2
02:44 32.8 °F /  0.4 °C 31 °F /  -0.6 °C 29.95in /  1014.1hPa NNW 2.6mph /  4.2km/h 9mph /  14.5km/h 93% 0.00in /  0mm 0 W/m2
02:49 32.8 °F /  0.4 °C 31 °F /  -0.6 °C 29.95in /  1014.1hPa North 1.1mph /  1.8km/h 9mph /  14.5km/h 93% 0.00in /  0mm 0 W/m2
02:54 32.8 °F /  0.4 °C 31 °F /  -0.6 °C 29.95in /  1014.1hPa NNE 0.8mph /  1.3km/h 9mph /  14.5km/h 93% 0.00in /  0mm 0 W/m2
02:59 32.8 °F /  0.4 °C 31 °F /  -0.6 °C 29.95in /  1014.1hPa NNW 1.3mph /  2.1km/h 9mph /  14.5km/h 93% 0.00in /  0mm 0 W/m2
03:04 32.8 °F /  0.4 °C 31 °F /  -0.6 °C 29.95in /  1014.1hPa North 0.4mph /  0.6km/h 9mph /  14.5km/h 93% 0.00in /  0mm 0 W/m2
03:09 32.9 °F /  0.5 °C 31.1 °F /  -0.5 °C 29.95in /  1014.1hPa North 2.4mph /  3.9km/h 7mph /  11.3km/h 93% 0.00in /  0mm 0 W/m2
03:14 32.9 °F /  0.5 °C 31.1 °F /  -0.5 °C 29.95in /  1014.1hPa North 1.1mph /  1.8km/h 7mph /  11.3km/h 93% 0.00in /  0mm 0 W/m2
03:19 32.9 °F /  0.5 °C 31.1 °F /  -0.5 °C 29.94in /  1013.8hPa North 1.8mph /  2.9km/h 7mph /  11.3km/h 93% 0.00in /  0mm 0 W/m2
03:24 32.9 °F /  0.5 °C 31.1 °F /  -0.5 °C 29.94in /  1013.8hPa North 1.1mph /  1.8km/h 7mph /  11.3km/h 93% 0.00in /  0mm 0 W/m2
03:29 32.9 °F /  0.5 °C 31.1 °F /  -0.5 °C 29.95in /  1014.1hPa NNW 1.4mph /  2.3km/h 7mph /  11.3km/h 93% 0.00in /  0mm 0 W/m2
03:34 32.9 °F /  0.5 °C 31.1 °F /  -0.5 °C 29.95in /  1014.1hPa NNW 2.4mph /  3.9km/h 7mph /  11.3km/h 93% 0.00in /  0mm 0 W/m2
03:39 32.9 °F /  0.5 °C 31.1 °F /  -0.5 °C 29.95in /  1014.1hPa NNW 2mph /  3.2km/h 10mph /  16.1km/h 93% 0.00in /  0mm 0 W/m2
03:44 32.9 °F /  0.5 °C 31.1 °F /  -0.5 °C 29.95in /  1014.1hPa NNW 0.3mph /  0.5km/h 10mph /  16.1km/h 93% 0.00in /  0mm 0 W/m2
03:49 32.9 °F /  0.5 °C 31.1 °F /  -0.5 °C 29.95in /  1014.1hPa North 1.5mph /  2.4km/h 10mph /  16.1km/h 93% 0.00in /  0mm 0 W/m2
03:54 32.9 °F /  0.5 °C 31.1 °F /  -0.5 °C 29.95in /  1014.1hPa NNW 3.4mph /  5.5km/h 10mph /  16.1km/h 93% 0.00in /  0mm 0 W/m2
03:59 32.9 °F /  0.5 °C 31.1 °F /  -0.5 °C 29.95in /  1014.1hPa NNW 0.4mph /  0.6km/h 10mph /  16.1km/h 93% 0.00in /  0mm 0 W/m2
04:00 32.8 °F /  0.4 °C 31 °F /  -0.6 °C 29.95in /  1014.1hPa Calm   10mph /  16.1km/h 93% 0.00in /  0mm 0 W/m2
04:09 32.8 °F /  0.4 °C 31 °F /  -0.6 °C 29.95in /  1014.1hPa NNW 0.6mph /  1km/h 5mph /  8km/h 93% 0.00in /  0mm 0 W/m2
04:14 32.9 °F /  0.5 °C 31.1 °F /  -0.5 °C 29.95in /  1014.1hPa Calm   5mph /  8km/h 93% 0.00in /  0mm 0 W/m2
04:19 32.9 °F /  0.5 °C 31.1 °F /  -0.5 °C 29.95in /  1014.1hPa NNW 1mph /  1.6km/h 5mph /  8km/h 93% 0.00in /  0mm 0 W/m2
04:24 32.9 °F /  0.5 °C 31.1 °F /  -0.5 °C 29.95in /  1014.1hPa NNW 1.8mph /  2.9km/h 7mph /  11.3km/h 93% 0.00in /  0mm 0 W/m2
04:29 32.9 °F /  0.5 °C 31.1 °F /  -0.5 °C 29.96in /  1014.4hPa NNW 1.5mph /  2.4km/h 7mph /  11.3km/h 93% 0.00in /  0mm 0 W/m2
04:34 32.8 °F /  0.4 °C 31 °F /  -0.6 °C 29.96in /  1014.4hPa NNW 1.1mph /  1.8km/h 7mph /  11.3km/h 93% 0.00in /  0mm 0 W/m2
04:39 32.8 °F /  0.4 °C 31 °F /  -0.6 °C 29.96in /  1014.4hPa NNW 0.8mph /  1.3km/h 5mph /  8km/h 93% 0.00in /  0mm 0 W/m2
04:44 32.8 °F /  0.4 °C 31 °F /  -0.6 °C 29.96in /  1014.4hPa NNW 2.3mph /  3.7km/h 9mph /  14.5km/h 93% 0.00in /  0mm 0 W/m2
04:49 32.8 °F /  0.4 °C 31 °F /  -0.6 °C 29.96in /  1014.4hPa NNW 1.3mph /  2.1km/h 9mph /  14.5km/h 93% 0.00in /  0mm 0 W/m2
04:54 32.7 °F /  0.4 °C 30.9 °F /  -0.6 °C 29.96in /  1014.4hPa NNW 1.4mph /  2.3km/h 9mph /  14.5km/h 93% 0.00in /  0mm 0 W/m2
04:59 32.7 °F /  0.4 °C 30.9 °F /  -0.6 °C 29.96in /  1014.4hPa NNW 1.2mph /  1.9km/h 9mph /  14.5km/h 93% 0.00in /  0mm 0 W/m2
05:04 32.6 °F /  0.3 °C 30.8 °F /  -0.7 °C 29.96in /  1014.4hPa NNW 2.6mph /  4.2km/h 9mph /  14.5km/h 93% 0.00in /  0mm 0 W/m2
05:09 32.6 °F /  0.3 °C 30.8 °F /  -0.7 °C 29.96in /  1014.4hPa NNW 2.2mph /  3.5km/h 6mph /  9.7km/h 93% 0.00in /  0mm 0 W/m2
05:14 32.6 °F /  0.3 °C 30.8 °F /  -0.7 °C 29.96in /  1014.4hPa North 2.1mph /  3.4km/h 7mph /  11.3km/h 93% 0.00in /  0mm 0 W/m2
05:19 32.6 °F /  0.3 °C 30.8 °F /  -0.7 °C 29.96in /  1014.4hPa NNW 2.3mph /  3.7km/h 7mph /  11.3km/h 93% 0.00in /  0mm 0 W/m2
05:24 32.6 °F /  0.3 °C 30.8 °F /  -0.7 °C 29.96in /  1014.4hPa NNW 1.5mph /  2.4km/h 7mph /  11.3km/h 93% 0.00in /  0mm 0 W/m2
05:29 32.6 °F /  0.3 °C 30.8 °F /  -0.7 °C 29.96in /  1014.4hPa NNW 1mph /  1.6km/h 7mph /  11.3km/h 93% 0.00in /  0mm 0 W/m2
05:34 32.5 °F /  0.3 °C 30.7 °F /  -0.7 °C 29.96in /  1014.4hPa NNW 1.9mph /  3.1km/h 7mph /  11.3km/h 93% 0.00in /  0mm 0 W/m2
05:39 32.5 °F /  0.3 °C 30.7 °F /  -0.7 °C 29.96in /  1014.4hPa NNW 2.4mph /  3.9km/h 6mph /  9.7km/h 93% 0.00in /  0mm 0 W/m2
05:44 32.5 °F /  0.3 °C 30.9 °F /  -0.6 °C 29.96in /  1014.4hPa NNW 0.9mph /  1.4km/h 6mph /  9.7km/h 93.8% 0.00in /  0mm 0 W/m2
05:49 32.5 °F /  0.3 °C 31 °F /  -0.6 °C 29.96in /  1014.4hPa NNW 0.4mph /  0.6km/h 6mph /  9.7km/h 94% 0.00in /  0mm 0 W/m2
05:54 32.5 °F /  0.3 °C 31 °F /  -0.6 °C 29.96in /  1014.4hPa NNW 1.1mph /  1.8km/h 6mph /  9.7km/h 94% 0.00in /  0mm 0 W/m2
05:59 32.5 °F /  0.3 °C 31 °F /  -0.6 °C 29.96in /  1014.4hPa North 1.4mph /  2.3km/h 7mph /  11.3km/h 94% 0.00in /  0mm 0 W/m2
06:04 32.5 °F /  0.3 °C 31 °F /  -0.6 °C 29.96in /  1014.4hPa NNW 0.1mph /  0.2km/h 7mph /  11.3km/h 94% 0.00in /  0mm 0 W/m2
06:09 32.5 °F /  0.3 °C 31 °F /  -0.6 °C 29.96in /  1014.4hPa NNW 0.3mph /  0.5km/h 6mph /  9.7km/h 94% 0.00in /  0mm 0 W/m2
06:14 32.5 °F /  0.3 °C 31 °F /  -0.6 °C 29.96in /  1014.4hPa NNW 0.4mph /  0.6km/h 6mph /  9.7km/h 94% 0.00in /  0mm 0 W/m2
06:19 32.5 °F /  0.3 °C 31 °F /  -0.6 °C 29.96in /  1014.4hPa NNW 0.5mph /  0.8km/h 6mph /  9.7km/h 94% 0.00in /  0mm 0 W/m2
06:24 32.5 °F /  0.3 °C 31 °F /  -0.6 °C 29.96in /  1014.4hPa North 0.6mph /  1km/h 6mph /  9.7km/h 94% 0.00in /  0mm 0 W/m2
06:29 32.5 °F /  0.3 °C 31 °F /  -0.6 °C 29.96in /  1014.4hPa NNW 0.7mph /  1.1km/h 7mph /  11.3km/h 94% 0.00in /  0mm 0 W/m2
06:34 32.5 °F /  0.3 °C 31 °F /  -0.6 °C 29.96in /  1014.4hPa NNW 0.9mph /  1.4km/h 7mph /  11.3km/h 94% 0.00in /  0mm 0 W/m2
06:39 32.5 °F /  0.3 °C 31 °F /  -0.6 °C 29.96in /  1014.4hPa North 0.2mph /  0.3km/h 4mph /  6.4km/h 94% 0.00in /  0mm 0 W/m2
06:44 32.5 °F /  0.3 °C 31 °F /  -0.6 °C 29.96in /  1014.4hPa North 0.5mph /  0.8km/h 5mph /  8km/h 94% 0.00in /  0mm 0 W/m2
06:49 32.5 °F /  0.3 °C 31 °F /  -0.6 °C 29.96in /  1014.4hPa North 0.5mph /  0.8km/h 6mph /  9.7km/h 94% 0.00in /  0mm 0 W/m2
06:54 32.4 °F /  0.2 °C 30.9 °F /  -0.6 °C 29.96in /  1014.4hPa North 1.3mph /  2.1km/h 6mph /  9.7km/h 94% 0.00in /  0mm 0 W/m2
06:59 32.4 °F /  0.2 °C 30.9 °F /  -0.6 °C 29.96in /  1014.4hPa NNW 0.9mph /  1.4km/h 6mph /  9.7km/h 94% 0.00in /  0mm 0 W/m2
07:04 32.4 °F /  0.2 °C 30.9 °F /  -0.6 °C 29.95in /  1014.1hPa NNW 0.4mph /  0.6km/h 6mph /  9.7km/h 94% 0.00in /  0mm 0 W/m2
07:09 32.4 °F /  0.2 °C 30.9 °F /  -0.6 °C 29.95in /  1014.1hPa Calm   3mph /  4.8km/h 94% 0.00in /  0mm 0 W/m2
07:14 32.4 °F /  0.2 °C 30.9 °F /  -0.6 °C 29.95in /  1014.1hPa North 0.3mph /  0.5km/h 4mph /  6.4km/h 94% 0.00in /  0mm 0 W/m2
07:19 32.3 °F /  0.2 °C 30.8 °F /  -0.7 °C 29.96in /  1014.4hPa NNW 0.7mph /  1.1km/h 6mph /  9.7km/h 94% 0.00in /  0mm 0 W/m2
07:24 32.3 °F /  0.2 °C 30.8 °F /  -0.7 °C 29.96in /  1014.4hPa NW 1.7mph /  2.7km/h 6mph /  9.7km/h 94% 0.00in /  0mm 0 W/m2
07:29 32.3 °F /  0.2 °C 30.7 °F /  -0.7 °C 29.96in /  1014.4hPa NNW 0.1mph /  0.2km/h 6mph /  9.7km/h 94% 0.00in /  0mm 0 W/m2
07:34 32.2 °F /  0.1 °C 30.7 °F /  -0.7 °C 29.97in /  1014.8hPa NNW 0.5mph /  0.8km/h 6mph /  9.7km/h 94% 0.00in /  0mm 0 W/m2
07:39 32.1 °F /  0.1 °C 30.6 °F /  -0.8 °C 29.97in /  1014.8hPa NNW 0.1mph /  0.2km/h 3mph /  4.8km/h 94% 0.00in /  0mm 0 W/m2
07:44 32 °F /  0 °C 30.5 °F /  -0.8 °C 29.97in /  1014.8hPa NNW 2.4mph /  3.9km/h 9mph /  14.5km/h 94% 0.00in /  0mm 5 W/m2
07:49 32 °F /  0 °C 30.4 °F /  -0.9 °C 29.97in /  1014.8hPa NNW 2.3mph /  3.7km/h 9mph /  14.5km/h 94% 0.00in /  0mm 7 W/m2
07:54 31.9 °F /  -0.1 °C 30.4 °F /  -0.9 °C 29.98in /  1015.1hPa NNW 1.2mph /  1.9km/h 9mph /  14.5km/h 94% 0.00in /  0mm 9 W/m2
07:59 32 °F /  0 °C 30.6 °F /  -0.8 °C 29.98in /  1015.1hPa NNW 2.4mph /  3.9km/h 9mph /  14.5km/h 94.6% 0.00in /  0mm 9 W/m2
08:00 32 °F /  0 °C 32 °F /  0 °C 29.97in /  1014.8hPa Calm   9mph /  14.5km/h 100% 0.00in /  0mm 9 W/m2
08:09 32.1 °F /  0.1 °C 30.6 °F /  -0.8 °C 29.98in /  1015.1hPa NNW 1.6mph /  2.6km/h 7mph /  11.3km/h 94% 0.00in /  0mm 7 W/m2
08:14 32.1 °F /  0.1 °C 30.6 °F /  -0.8 °C 29.98in /  1015.1hPa NNW 3.1mph /  5km/h 11mph /  17.7km/h 94% 0.00in /  0mm 5 W/m2
08:19 32.1 °F /  0.1 °C 30.6 °F /  -0.8 °C 29.99in /  1015.5hPa North 3.3mph /  5.3km/h 11mph /  17.7km/h 94% 0.00in /  0mm 7 W/m2
08:24 32.1 °F /  0.1 °C 30.6 °F /  -0.8 °C 29.99in /  1015.5hPa NNW 2.1mph /  3.4km/h 11mph /  17.7km/h 94% 0.00in /  0mm 16 W/m2
08:29 32.1 °F /  0.1 °C 30.5 °F /  -0.8 °C 29.98in /  1015.1hPa NW 0.9mph /  1.4km/h 11mph /  17.7km/h 93.7% 0.00in /  0mm 16 W/m2
08:34 32.2 °F /  0.1 °C 30.4 °F /  -0.9 °C 29.99in /  1015.5hPa NNW 0.6mph /  1km/h 11mph /  17.7km/h 93% 0.00in /  0mm 39 W/m2
08:39 32.4 °F /  0.2 °C 30.6 °F /  -0.8 °C 29.99in /  1015.5hPa NNW 0.5mph /  0.8km/h 6mph /  9.7km/h 93.2% 0.00in /  0mm 40 W/m2
08:44 32.7 °F /  0.4 °C 31.2 °F /  -0.4 °C 29.99in /  1015.5hPa NNW 2.3mph /  3.7km/h 7mph /  11.3km/h 94% 0.00in /  0mm 69 W/m2
08:49 33.1 °F /  0.6 °C 31.6 °F /  -0.2 °C 29.99in /  1015.5hPa NNW 0.4mph /  0.6km/h 7mph /  11.3km/h 94% 0.00in /  0mm 98 W/m2
08:54 33.6 °F /  0.9 °C 32.1 °F /  0.1 °C 29.99in /  1015.5hPa NNW 1.6mph /  2.6km/h 7mph /  11.3km/h 94% 0.00in /  0mm 97 W/m2
08:59 34 °F /  1.1 °C 32.2 °F /  0.1 °C 29.99in /  1015.5hPa North 1.4mph /  2.3km/h 7mph /  11.3km/h 93.1% 0.00in /  0mm 49 W/m2
09:04 34.3 °F /  1.3 °C 32.5 °F /  0.3 °C 29.99in /  1015.5hPa NNW 2.1mph /  3.4km/h 8mph /  12.9km/h 92.8% 0.00in /  0mm 79 W/m2
09:09 34.5 °F /  1.4 °C 32.5 °F /  0.3 °C 30.00in /  1015.8hPa North 0.9mph /  1.4km/h 8mph /  12.9km/h 92% 0.00in /  0mm 83 W/m2
09:14 34.9 °F /  1.6 °C 32.9 °F /  0.5 °C 30.00in /  1015.8hPa North 0.3mph /  0.5km/h 8mph /  12.9km/h 92% 0.00in /  0mm 83 W/m2
09:19 35.3 °F /  1.8 °C 33 °F /  0.6 °C 30.00in /  1015.8hPa NNE 0.4mph /  0.6km/h 8mph /  12.9km/h 91.1% 0.00in /  0mm 111 W/m2
09:24 35.6 °F /  2 °C 33 °F /  0.6 °C 30.00in /  1015.8hPa NE 1.5mph /  2.4km/h 8mph /  12.9km/h 90.3% 0.00in /  0mm 67 W/m2
09:29 35.7 °F /  2.1 °C 32.9 °F /  0.5 °C 30.00in /  1015.8hPa ENE 2.4mph /  3.9km/h 9mph /  14.5km/h 89.5% 0.00in /  0mm 141 W/m2
09:34 35.7 °F /  2.1 °C 32.5 °F /  0.3 °C 30.00in /  1015.8hPa NE 1.6mph /  2.6km/h 9mph /  14.5km/h 88% 0.00in /  0mm 155 W/m2
09:39 35.9 °F /  2.2 °C 32.7 °F /  0.4 °C 30.00in /  1015.8hPa NE 1.7mph /  2.7km/h 6mph /  9.7km/h 88% 0.01in /  0.25mm 169 W/m2
09:44 36 °F /  2.2 °C 32.8 °F /  0.4 °C 29.99in /  1015.5hPa North 2.4mph /  3.9km/h 6mph /  9.7km/h 88% 0.01in /  0.25mm 167 W/m2
09:49 36.2 °F /  2.3 °C 32.8 °F /  0.4 °C 29.99in /  1015.5hPa NNE 3.8mph /  6.1km/h 10mph /  16.1km/h 87.4% 0.01in /  0.25mm 135 W/m2
09:54 36.2 °F /  2.3 °C 32.5 °F /  0.3 °C 29.99in /  1015.5hPa NNE 1mph /  1.6km/h 10mph /  16.1km/h 86.1% 0.01in /  0.25mm 98 W/m2
09:59 36.3 °F /  2.4 °C 32.5 °F /  0.3 °C 29.99in /  1015.5hPa NE 2.5mph /  4km/h 10mph /  16.1km/h 86% 0.01in /  0.25mm 98 W/m2
10:04 36.3 °F /  2.4 °C 32.6 °F /  0.3 °C 29.99in /  1015.5hPa NE 1.4mph /  2.3km/h 10mph /  16.1km/h 86% 0.01in /  0.25mm 123 W/m2
10:09 36.5 °F /  2.5 °C 32.6 °F /  0.3 °C 29.99in /  1015.5hPa NE 1.3mph /  2.1km/h 6mph /  9.7km/h 85.7% 0.01in /  0.25mm 188 W/m2
10:14 36.6 °F /  2.6 °C 32.5 °F /  0.3 °C 29.99in /  1015.5hPa ENE 2.6mph /  4.2km/h 7mph /  11.3km/h 85% 0.01in /  0.25mm 287 W/m2
10:19 36.9 °F /  2.7 °C 32.8 °F /  0.4 °C 29.99in /  1015.5hPa ENE 1.9mph /  3.1km/h 7mph /  11.3km/h 85% 0.01in /  0.25mm 309 W/m2
10:24 37.3 °F /  2.9 °C 33.2 °F /  0.7 °C 29.99in /  1015.5hPa North 0.8mph /  1.3km/h 7mph /  11.3km/h 85% 0.01in /  0.25mm 241 W/m2
10:29 37.7 °F /  3.2 °C 33.6 °F /  0.9 °C 29.99in /  1015.5hPa NNW 0.1mph /  0.2km/h 7mph /  11.3km/h 85% 0.01in /  0.25mm 281 W/m2
10:34 38 °F /  3.3 °C 33.5 °F /  0.8 °C 29.98in /  1015.1hPa NNE 1.9mph /  3.1km/h 7mph /  11.3km/h 83.7% 0.01in /  0.25mm 315 W/m2
10:39 38.3 °F /  3.5 °C 33.6 °F /  0.9 °C 29.98in /  1015.1hPa NE 0.8mph /  1.3km/h 7mph /  11.3km/h 83% 0.01in /  0.25mm 469 W/m2
10:44 39.1 °F /  3.9 °C 34.5 °F /  1.4 °C 29.98in /  1015.1hPa NE 0.5mph /  0.8km/h 7mph /  11.3km/h 83.6% 0.01in /  0.25mm 499 W/m2
10:49 39.9 °F /  4.4 °C 34.8 °F /  1.6 °C 29.98in /  1015.1hPa NE 2.8mph /  4.5km/h 7mph /  11.3km/h 81.8% 0.01in /  0.25mm 475 W/m2
10:54 40.5 °F /  4.7 °C 34.8 °F /  1.6 °C 29.98in /  1015.1hPa North 1.4mph /  2.3km/h 7mph /  11.3km/h 80% 0.01in /  0.25mm 366 W/m2
10:59 40.8 °F /  4.9 °C 34.7 °F /  1.5 °C 29.98in /  1015.1hPa NNE 2.3mph /  3.7km/h 7mph /  11.3km/h 78.5% 0.01in /  0.25mm 213 W/m2
11:04 40.6 °F /  4.8 °C 33.8 °F /  1 °C 29.97in /  1014.8hPa NE 2mph /  3.2km/h 11mph /  17.7km/h 76.3% 0.01in /  0.25mm 241 W/m2
11:09 40.4 °F /  4.7 °C 33.8 °F /  1 °C 29.97in /  1014.8hPa NE 0.8mph /  1.3km/h 11mph /  17.7km/h 77.1% 0.00in /  0mm 322 W/m2
11:14 40.6 °F /  4.8 °C 34.6 °F /  1.4 °C 29.98in /  1015.1hPa North 1mph /  1.6km/h 11mph /  17.7km/h 78.8% 0.00in /  0mm 253 W/m2
11:19 40.9 °F /  4.9 °C 34.6 °F /  1.4 °C 29.97in /  1014.8hPa North 2.9mph /  4.7km/h 11mph /  17.7km/h 78% 0.00in /  0mm 218 W/m2
11:24 40.9 °F /  4.9 °C 34.3 °F /  1.3 °C 29.97in /  1014.8hPa North 2.7mph /  4.3km/h 11mph /  17.7km/h 77.2% 0.00in /  0mm 211 W/m2
11:29 40.7 °F /  4.8 °C 34 °F /  1.1 °C 29.97in /  1014.8hPa NNW 2mph /  3.2km/h 11mph /  17.7km/h 76.8% 0.00in /  0mm 181 W/m2
11:34 40.5 °F /  4.7 °C 33.9 °F /  1.1 °C 29.97in /  1014.8hPa North 0.9mph /  1.4km/h 11mph /  17.7km/h 77% 0.00in /  0mm 162 W/m2
11:39 40.2 °F /  4.6 °C 33.6 °F /  0.9 °C 29.96in /  1014.4hPa North 1.2mph /  1.9km/h 6mph /  9.7km/h 77% 0.00in /  0mm 183 W/m2
11:44 40.1 °F /  4.5 °C 33.6 °F /  0.9 °C 29.96in /  1014.4hPa NNW 0.4mph /  0.6km/h 6mph /  9.7km/h 77.6% 0.00in /  0mm 183 W/m2
11:49 40 °F /  4.4 °C 33.7 °F /  0.9 °C 29.96in /  1014.4hPa ENE 0.4mph /  0.6km/h 6mph /  9.7km/h 78% 0.00in /  0mm 179 W/m2
11:54 39.9 °F /  4.4 °C 33.6 °F /  0.9 °C 29.96in /  1014.4hPa NNE 1.2mph /  1.9km/h 6mph /  9.7km/h 78% 0.00in /  0mm 179 W/m2
11:59 39.8 °F /  4.3 °C 33.5 °F /  0.8 °C 29.96in /  1014.4hPa North 2.1mph /  3.4km/h 7mph /  11.3km/h 78.1% 0.00in /  0mm 113 W/m2
12:00 39.8 °F /  4.3 °C 33.5 °F /  0.8 °C 29.95in /  1014.1hPa Calm   7mph /  11.3km/h 78% 0.00in /  0mm 62 W/m2
12:09 40.4 °F /  4.7 °C 34.6 °F /  1.4 °C 29.95in /  1014.1hPa NW 3.5mph /  5.6km/h 10mph /  16.1km/h 79.7% 0.00in /  0mm 257 W/m2
12:14 40.5 °F /  4.7 °C 34.3 °F /  1.3 °C 29.95in /  1014.1hPa NNW 4.5mph /  7.2km/h 10mph /  16.1km/h 78.3% 0.00in /  0mm 105 W/m2
12:19 40.8 °F /  4.9 °C 34.5 °F /  1.4 °C 29.95in /  1014.1hPa NNW 3.4mph /  5.5km/h 11mph /  17.7km/h 78% 0.00in /  0mm 557 W/m2
12:24 41.1 °F /  5.1 °C 34.5 °F /  1.4 °C 29.94in /  1013.8hPa NNW 2.4mph /  3.9km/h 11mph /  17.7km/h 77.2% 0.00in /  0mm 292 W/m2
12:29 41.4 °F /  5.2 °C 34.7 °F /  1.5 °C 29.94in /  1013.8hPa North 1mph /  1.6km/h 11mph /  17.7km/h 76.8% 0.00in /  0mm 232 W/m2
12:34 41.6 °F /  5.3 °C 34.9 °F /  1.6 °C 29.94in /  1013.8hPa North 0.5mph /  0.8km/h 11mph /  17.7km/h 76.6% 0.00in /  0mm 199 W/m2
12:39 41.8 °F /  5.4 °C 34.7 °F /  1.5 °C 29.94in /  1013.8hPa North 1.5mph /  2.4km/h 4mph /  6.4km/h 75.5% 0.00in /  0mm 227 W/m2
12:44 41.9 °F /  5.5 °C 34.5 °F /  1.4 °C 29.93in /  1013.4hPa NNW 1.2mph /  1.9km/h 9mph /  14.5km/h 74.8% 0.00in /  0mm 220 W/m2
12:49 41.9 °F /  5.5 °C 34.2 °F /  1.2 °C 29.93in /  1013.4hPa NNW 2.4mph /  3.9km/h 9mph /  14.5km/h 74% 0.00in /  0mm 214 W/m2
12:54 41.8 °F /  5.4 °C 34 °F /  1.1 °C 29.93in /  1013.4hPa NNE 0.9mph /  1.4km/h 10mph /  16.1km/h 73.6% 0.00in /  0mm 221 W/m2
12:59 41.7 °F /  5.4 °C 33.6 °F /  0.9 °C 29.93in /  1013.4hPa NE 2.9mph /  4.7km/h 10mph /  16.1km/h 72.8% 0.00in /  0mm 204 W/m2
13:04 41.5 °F /  5.3 °C 33.6 °F /  0.9 °C 29.93in /  1013.4hPa NNE 3.1mph /  5km/h 11mph /  17.7km/h 73.4% 0.00in /  0mm 230 W/m2
13:09 41.5 °F /  5.3 °C 33.9 °F /  1.1 °C 29.93in /  1013.4hPa NNW 2.4mph /  3.9km/h 11mph /  17.7km/h 74% 0.00in /  0mm 221 W/m2
13:14 41.8 °F /  5.4 °C 34.1 °F /  1.2 °C 29.93in /  1013.4hPa North 3.2mph /  5.1km/h 11mph /  17.7km/h 73.9% 0.00in /  0mm 244 W/m2
13:19 42.1 °F /  5.6 °C 33.7 °F /  0.9 °C 29.92in /  1013.1hPa North 2.2mph /  3.5km/h 11mph /  17.7km/h 72% 0.00in /  0mm 227 W/m2
13:24 42.1 °F /  5.6 °C 33.6 °F /  0.9 °C 29.92in /  1013.1hPa North 2.1mph /  3.4km/h 11mph /  17.7km/h 71.6% 0.00in /  0mm 227 W/m2
13:29 42.1 °F /  5.6 °C 33.6 °F /  0.9 °C 29.93in /  1013.4hPa North 2.4mph /  3.9km/h 11mph /  17.7km/h 71.7% 0.00in /  0mm 139 W/m2
13:34 41.9 °F /  5.5 °C 33.4 °F /  0.8 °C 29.93in /  1013.4hPa NNW 2.8mph /  4.5km/h 11mph /  17.7km/h 71.6% 0.00in /  0mm 155 W/m2
13:39 41.6 °F /  5.3 °C 33.3 °F /  0.7 °C 29.92in /  1013.1hPa NNE 1.3mph /  2.1km/h 7mph /  11.3km/h 72.1% 0.00in /  0mm 158 W/m2
13:44 41.5 °F /  5.3 °C 33.4 °F /  0.8 °C 29.92in /  1013.1hPa NNW 2.1mph /  3.4km/h 11mph /  17.7km/h 72.8% 0.00in /  0mm 181 W/m2
13:49 41.4 °F /  5.2 °C 33.4 °F /  0.8 °C 29.92in /  1013.1hPa NNW 3.7mph /  6km/h 11mph /  17.7km/h 73% 0.00in /  0mm 155 W/m2
13:54 41.4 °F /  5.2 °C 33.4 °F /  0.8 °C 29.92in /  1013.1hPa North 2.6mph /  4.2km/h 11mph /  17.7km/h 73% 0.00in /  0mm 202 W/m2
13:59 41.5 °F /  5.3 °C 33.5 °F /  0.8 °C 29.92in /  1013.1hPa North 3mph /  4.8km/h 11mph /  17.7km/h 73% 0.00in /  0mm 221 W/m2
14:04 41.7 °F /  5.4 °C 33.5 °F /  0.8 °C 29.92in /  1013.1hPa NNW 1.7mph /  2.7km/h 11mph /  17.7km/h 72.6% 0.00in /  0mm 193 W/m2
14:09 41.8 °F /  5.4 °C 33.5 °F /  0.8 °C 29.92in /  1013.1hPa NW 2.2mph /  3.5km/h 9mph /  14.5km/h 72.2% 0.00in /  0mm 216 W/m2
14:14 41.7 °F /  5.4 °C 33.2 °F /  0.7 °C 29.92in /  1013.1hPa NNW 2.7mph /  4.3km/h 9mph /  14.5km/h 71.5% 0.00in /  0mm 83 W/m2
14:19 41.5 °F /  5.3 °C 32.8 °F /  0.4 °C 29.92in /  1013.1hPa NNW 3.2mph /  5.1km/h 12mph /  19.3km/h 71% 0.00in /  0mm 40 W/m2
14:24 41 °F /  5 °C 32.6 °F /  0.3 °C 29.92in /  1013.1hPa NNW 1.9mph /  3.1km/h 12mph /  19.3km/h 71.7% 0.00in /  0mm 60 W/m2
14:29 40.6 °F /  4.8 °C 32.5 °F /  0.3 °C 29.92in /  1013.1hPa NNW 1.4mph /  2.3km/h 12mph /  19.3km/h 72.6% 0.00in /  0mm 46 W/m2
14:30 40.5 °F /  4.7 °C 32.5 °F /  0.3 °C 29.92in /  1013.1hPa NNW 3mph /  4.8km/h 12mph /  19.3km/h 73% 0.00in /  0mm 33 W/m2
15:00 39.4 °F /  4.1 °C 32.2 °F /  0.1 °C 29.91in /  1012.8hPa NW 2mph /  3.2km/h 9mph /  14.5km/h 75% 0.00in /  0mm 32 W/m2
15:30 39.6 °F /  4.2 °C 32 °F /  0 °C 29.92in /  1013.1hPa NNW 1mph /  1.6km/h 7mph /  11.3km/h 74% 0.00in /  0mm 23 W/m2
16:04 39.3 °F /  4.1 °C 32.3 °F /  0.2 °C 29.92in /  1013.1hPa North 0.6mph /  1km/h 7mph /  11.3km/h 75.8% 0.00in /  0mm 23 W/m2
16:09 39.2 °F /  4 °C 32.3 °F /  0.2 °C 29.92in /  1013.1hPa NNE 0.2mph /  0.3km/h 4mph /  6.4km/h 76% 0.00in /  0mm 9 W/m2
16:14 39.1 °F /  3.9 °C 32.2 °F /  0.1 °C 29.92in /  1013.1hPa Calm   4mph /  6.4km/h 76% 0.00in /  0mm 7 W/m2
16:19 39 °F /  3.9 °C 32.1 °F /  0.1 °C 29.92in /  1013.1hPa North 0.4mph /  0.6km/h 4mph /  6.4km/h 76% 0.00in /  0mm 7 W/m2
16:24 38.8 °F /  3.8 °C 32.3 °F /  0.2 °C 29.92in /  1013.1hPa Calm   4mph /  6.4km/h 77% 0.00in /  0mm 7 W/m2
16:29 38.7 °F /  3.7 °C 32.1 °F /  0.1 °C 29.92in /  1013.1hPa NNW 0.1mph /  0.2km/h 4mph /  6.4km/h 77% 0.00in /  0mm 5 W/m2
16:34 38.5 °F /  3.6 °C 32.1 °F /  0.1 °C 29.92in /  1013.1hPa Calm   4mph /  6.4km/h 77.3% 0.00in /  0mm 0 W/m2
16:39 38.4 °F /  3.6 °C 32.1 °F /  0.1 °C 29.92in /  1013.1hPa Calm     78% 0.00in /  0mm 0 W/m2
16:44 38.2 °F /  3.4 °C 32 °F /  0 °C 29.92in /  1013.1hPa NNW 0.7mph /  1.1km/h 4mph /  6.4km/h 78% 0.00in /  0mm 0 W/m2
16:49 38 °F /  3.3 °C 32.1 °F /  0.1 °C 29.92in /  1013.1hPa Calm   4mph /  6.4km/h 78.9% 0.00in /  0mm 0 W/m2
16:54 37.9 °F /  3.3 °C 31.9 °F /  -0.1 °C 29.92in /  1013.1hPa Calm   4mph /  6.4km/h 79% 0.00in /  0mm 0 W/m2
16:59 37.7 °F /  3.2 °C 31.9 °F /  -0.1 °C 29.92in /  1013.1hPa Calm   4mph /  6.4km/h 79.4% 0.00in /  0mm 0 W/m2
17:04 37.5 °F /  3.1 °C 31.9 °F /  -0.1 °C 29.92in /  1013.1hPa Calm   4mph /  6.4km/h 80% 0.00in /  0mm 0 W/m2
17:09 37.3 °F /  2.9 °C 31.7 °F /  -0.2 °C 29.92in /  1013.1hPa Calm     80% 0.00in /  0mm 0 W/m2
17:14 37.1 °F /  2.8 °C 31.7 °F /  -0.2 °C 29.92in /  1013.1hPa Calm     80.6% 0.00in /  0mm 0 W/m2
17:19 37 °F /  2.8 °C 31.7 °F /  -0.2 °C 29.93in /  1013.4hPa Calm   1mph /  1.6km/h 81% 0.00in /  0mm 0 W/m2
17:24 36.8 °F /  2.7 °C 31.8 °F /  -0.1 °C 29.93in /  1013.4hPa Calm   1mph /  1.6km/h 81.9% 0.00in /  0mm 0 W/m2
17:29 36.7 °F /  2.6 °C 31.7 °F /  -0.2 °C 29.93in /  1013.4hPa Calm   1mph /  1.6km/h 82% 0.00in /  0mm 0 W/m2
17:34 36.5 °F /  2.5 °C 31.7 °F /  -0.2 °C 29.93in /  1013.4hPa Calm   1mph /  1.6km/h 82.5% 0.00in /  0mm 0 W/m2
17:39 36.4 °F /  2.4 °C 31.8 °F /  -0.1 °C 29.93in /  1013.4hPa Calm     83% 0.00in /  0mm 0 W/m2
17:44 36.3 °F /  2.4 °C 31.6 °F /  -0.2 °C 29.93in /  1013.4hPa NNW 0.1mph /  0.2km/h 2mph /  3.2km/h 83% 0.00in /  0mm 0 W/m2
17:49 36.2 °F /  2.3 °C 31.6 °F /  -0.2 °C 29.93in /  1013.4hPa NNW 0.1mph /  0.2km/h 2mph /  3.2km/h 83.3% 0.00in /  0mm 0 W/m2
17:54 36.1 °F /  2.3 °C 31.8 °F /  -0.1 °C 29.93in /  1013.4hPa Calm   2mph /  3.2km/h 84% 0.00in /  0mm 0 W/m2
17:59 36 °F /  2.2 °C 31.7 °F /  -0.2 °C 29.93in /  1013.4hPa NNW 0.1mph /  0.2km/h 2mph /  3.2km/h 84% 0.00in /  0mm 0 W/m2
18:04 35.9 °F /  2.2 °C 31.6 °F /  -0.2 °C 29.93in /  1013.4hPa Calm   2mph /  3.2km/h 84% 0.00in /  0mm 0 W/m2
18:09 35.9 °F /  2.2 °C 31.7 °F /  -0.2 °C 29.93in /  1013.4hPa Calm   2mph /  3.2km/h 84.5% 0.00in /  0mm 0 W/m2
18:14 35.8 °F /  2.1 °C 31.7 °F /  -0.2 °C 29.94in /  1013.8hPa NNW 0.1mph /  0.2km/h 2mph /  3.2km/h 85% 0.00in /  0mm 0 W/m2
18:19 35.6 °F /  2 °C 31.6 °F /  -0.2 °C 29.94in /  1013.8hPa Calm   2mph /  3.2km/h 85% 0.00in /  0mm 0 W/m2
18:24 35.5 °F /  1.9 °C 31.5 °F /  -0.3 °C 29.94in /  1013.8hPa Calm   2mph /  3.2km/h 85% 0.00in /  0mm 0 W/m2
18:29 35.4 °F /  1.9 °C 31.3 °F /  -0.4 °C 29.94in /  1013.8hPa Calm   2mph /  3.2km/h 85% 0.00in /  0mm 0 W/m2
18:34 35.3 °F /  1.8 °C 31.2 °F /  -0.4 °C 29.93in /  1013.4hPa Calm   2mph /  3.2km/h 85% 0.00in /  0mm 0 W/m2
18:39 35.3 °F /  1.8 °C 31.5 °F /  -0.3 °C 29.94in /  1013.8hPa Calm     86% 0.00in /  0mm 0 W/m2
18:44 35.2 °F /  1.8 °C 31.5 °F /  -0.3 °C 29.94in /  1013.8hPa Calm     86% 0.00in /  0mm 0 W/m2
18:49 35.2 °F /  1.8 °C 31.4 °F /  -0.3 °C 29.93in /  1013.4hPa NNW 0.5mph /  0.8km/h 2mph /  3.2km/h 86% 0.00in /  0mm 0 W/m2
18:54 35.1 °F /  1.7 °C 31.4 °F /  -0.3 °C 29.93in /  1013.4hPa NNW 0.1mph /  0.2km/h 4mph /  6.4km/h 86% 0.00in /  0mm 0 W/m2
18:59 35 °F /  1.7 °C 31.3 °F /  -0.4 °C 29.93in /  1013.4hPa NNW 0.6mph /  1km/h 4mph /  6.4km/h 86% 0.00in /  0mm 0 W/m2
19:04 35 °F /  1.7 °C 31.2 °F /  -0.4 °C 29.93in /  1013.4hPa NNW 0.4mph /  0.6km/h 4mph /  6.4km/h 86% 0.00in /  0mm 0 W/m2
19:09 34.9 °F /  1.6 °C 31.2 °F /  -0.4 °C 29.93in /  1013.4hPa NNW 0.2mph /  0.3km/h 3mph /  4.8km/h 86.3% 0.00in /  0mm 0 W/m2
19:14 34.8 °F /  1.6 °C 31.3 °F /  -0.4 °C 29.93in /  1013.4hPa Calm   3mph /  4.8km/h 87% 0.00in /  0mm 0 W/m2
19:19 34.7 °F /  1.5 °C 31.2 °F /  -0.4 °C 29.93in /  1013.4hPa Calm   3mph /  4.8km/h 87% 0.00in /  0mm 0 W/m2
19:24 34.6 °F /  1.4 °C 31.1 °F /  -0.5 °C 29.93in /  1013.4hPa Calm   3mph /  4.8km/h 87% 0.00in /  0mm 0 W/m2
19:29 34.5 °F /  1.4 °C 31 °F /  -0.6 °C 29.93in /  1013.4hPa Calm   3mph /  4.8km/h 87% 0.00in /  0mm 0 W/m2
19:34 34.4 °F /  1.3 °C 30.9 °F /  -0.6 °C 29.93in /  1013.4hPa Calm   3mph /  4.8km/h 87% 0.00in /  0mm 0 W/m2
19:39 34.4 °F /  1.3 °C 31.1 °F /  -0.5 °C 29.92in /  1013.1hPa Calm   1mph /  1.6km/h 87.6% 0.00in /  0mm 0 W/m2
19:44 34.3 °F /  1.3 °C 31.1 °F /  -0.5 °C 29.92in /  1013.1hPa Calm   1mph /  1.6km/h 88% 0.00in /  0mm 0 W/m2
19:49 34.3 °F /  1.3 °C 31.1 °F /  -0.5 °C 29.92in /  1013.1hPa Calm   1mph /  1.6km/h 88% 0.00in /  0mm 0 W/m2
19:54 34.2 °F /  1.2 °C 31 °F /  -0.6 °C 29.92in /  1013.1hPa Calm   1mph /  1.6km/h 88% 0.00in /  0mm 0 W/m2
19:59 34.1 °F /  1.2 °C 31 °F /  -0.6 °C 29.92in /  1013.1hPa Calm   1mph /  1.6km/h 88% 0.00in /  0mm 0 W/m2
20:04 34.1 °F /  1.2 °C 30.9 °F /  -0.6 °C 29.92in /  1013.1hPa Calm     88% 0.00in /  0mm 0 W/m2
20:09 34 °F /  1.1 °C 30.9 °F /  -0.6 °C 29.92in /  1013.1hPa Calm     88% 0.00in /  0mm 0 W/m2
20:12 34 °F /  1.1 °C 31 °F /  -0.6 °C 29.92in /  1013.1hPa Calm     88.7% 0.00in /  0mm 0 W/m2
20:19 34.1 °F /  1.2 °C 31.2 °F /  -0.4 °C 29.93in /  1013.4hPa Calm     89% 0.00in /  0mm 0 W/m2
20:24 34.2 °F /  1.2 °C 31.3 °F /  -0.4 °C 29.93in /  1013.4hPa Calm     89% 0.00in /  0mm 0 W/m2
20:29 34.3 °F /  1.3 °C 31.4 °F /  -0.3 °C 29.93in /  1013.4hPa Calm     89% 0.00in /  0mm 0 W/m2
20:34 34.3 °F /  1.3 °C 31.5 °F /  -0.3 °C 29.93in /  1013.4hPa Calm     89.5% 0.00in /  0mm 0 W/m2
20:39 34.3 °F /  1.3 °C 31.6 °F /  -0.2 °C 29.93in /  1013.4hPa Calm     89.7% 0.00in /  0mm 0 W/m2
20:44 34.3 °F /  1.3 °C 31.4 °F /  -0.3 °C 29.92in /  1013.1hPa Calm     89.2% 0.00in /  0mm 0 W/m2
20:49 34.3 °F /  1.3 °C 31.4 °F /  -0.3 °C 29.92in /  1013.1hPa Calm     89% 0.00in /  0mm 0 W/m2
20:54 34.2 °F /  1.2 °C 31.3 °F /  -0.4 °C 29.92in /  1013.1hPa Calm     89% 0.00in /  0mm 0 W/m2
20:59 33.8 °F /  1 °C 30.8 °F /  -0.7 °C 29.92in /  1013.1hPa Calm     88.6% 0.00in /  0mm 0 W/m2
21:04 33.5 °F /  0.8 °C 30.6 °F /  -0.8 °C 29.93in /  1013.4hPa Calm     89% 0.00in /  0mm 0 W/m2
21:09 33.4 °F /  0.8 °C 30.5 °F /  -0.8 °C 29.93in /  1013.4hPa Calm     89% 0.00in /  0mm 0 W/m2
21:14 33.2 °F /  0.7 °C 30.3 °F /  -0.9 °C 29.93in /  1013.4hPa Calm     89% 0.00in /  0mm 0 W/m2
21:19 33 °F /  0.6 °C 30.1 °F /  -1.1 °C 29.93in /  1013.4hPa Calm     89% 0.00in /  0mm 0 W/m2
21:24 32.8 °F /  0.4 °C 30 °F /  -1.1 °C 29.93in /  1013.4hPa Calm     89.2% 0.00in /  0mm 0 W/m2
21:25 32.7 °F /  0.4 °C 30.1 °F /  -1.1 °C 29.93in /  1013.4hPa Calm     90% 0.00in /  0mm 0 W/m2
21:30 32.6 °F /  0.3 °C 30 °F /  -1.1 °C 29.93in /  1013.4hPa Calm     90% 0.00in /  0mm 0 W/m2
22:00 32.7 °F /  0.4 °C 30.4 °F /  -0.9 °C 29.93in /  1013.4hPa Calm     91% 0.00in /  0mm 0 W/m2
22:30 32.4 °F /  0.2 °C 30.1 °F /  -1.1 °C 29.92in /  1013.1hPa Calm     91% 0.00in /  0mm 0 W/m2
23:04 32.6 °F /  0.3 °C 30.5 °F /  -0.8 °C 29.92in /  1013.1hPa Calm     91.9% 0.00in /  0mm 0 W/m2
23:09 32.7 °F /  0.4 °C 30.6 °F /  -0.8 °C 29.92in /  1013.1hPa Calm     92% 0.00in /  0mm 0 W/m2
23:14 32.8 °F /  0.4 °C 30.7 °F /  -0.7 °C 29.92in /  1013.1hPa Calm     92% 0.00in /  0mm 0 W/m2
23:19 32.8 °F /  0.4 °C 30.8 °F /  -0.7 °C 29.92in /  1013.1hPa Calm     92% 0.00in /  0mm 0 W/m2
23:24 32.9 °F /  0.5 °C 30.8 °F /  -0.7 °C 29.92in /  1013.1hPa Calm     92% 0.00in /  0mm 0 W/m2
23:29 33 °F /  0.6 °C 30.9 °F /  -0.6 °C 29.92in /  1013.1hPa Calm     92% 0.00in /  0mm 0 W/m2
23:34 33 °F /  0.6 °C 30.9 °F /  -0.6 °C 29.91in /  1012.8hPa Calm     92% 0.00in /  0mm 0 W/m2
23:39 33.1 °F /  0.6 °C 31 °F /  -0.6 °C 29.91in /  1012.8hPa Calm     92% 0.00in /  0mm 0 W/m2
23:44 33.2 °F /  0.7 °C 31.1 °F /  -0.5 °C 29.91in /  1012.8hPa Calm     92% 0.00in /  0mm 0 W/m2
23:49 33.2 °F /  0.7 °C 31.1 °F /  -0.5 °C 29.91in /  1012.8hPa Calm     92% 0.00in /  0mm 0 W/m2
23:54 33.3 °F /  0.7 °C 31.2 °F /  -0.4 °C 29.91in /  1012.8hPa Calm     92% 0.00in /  0mm 0 W/m2
23:59 33.3 °F /  0.7 °C 31.2 °F /  -0.4 °C 29.91in /  1012.8hPa Calm     92% 0.00in /  0mm 0 W/m2
Hartford County Weather
Compliments of Weather Underground - 2 mb